Time;durP1;ratioP1;P1;durP2;ratioP2;P2;SDS_P1;SDS_P2;PMS_P1;PMS_P2;Temp;Humidity;BMP_temperature;BMP_pressure;BME280_temperature;BME280_humidity;BME280_pressure;Samples;Min_cycle;Max_cycle;Signal;HPM_P1;HPM_P2
2023/03/27 00:01:42;;;;;;;;;;;;;;;-144.99;78.43;52523.50;5048900;28;19982;-67
2023/03/27 00:04:09;;;;;;;;;;;;;;;-144.99;78.56;52492.94;5048503;28;20359;-67
2023/03/27 00:06:36;;;;;;;;;;;;;;;-144.99;78.68;52545.94;5048228;28;20070;-68
2023/03/27 00:09:03;;;;;;;;;;;;;;;-144.99;79.09;52547.97;5044307;28;19933;-71
2023/03/27 00:11:30;;;;;;;;;;;;;;;-144.99;79.00;52517.41;5048892;28;19931;-68
2023/03/27 00:13:58;;;;;;;;;;;;;;;-144.99;79.23;52539.81;5047825;28;19928;-70
2023/03/27 00:16:26;;;;;;;;;;;;;;;-144.99;79.39;52515.34;5048489;28;19940;-69
2023/03/27 00:18:53;;;;;;;;;;;;;;;-144.99;79.51;52517.41;5043793;28;19943;-69
2023/03/27 00:21:19;;;;;;;;;;;;;;;-144.99;79.60;52521.47;5048334;28;20393;-70
2023/03/27 00:23:46;;;;;;;;;;;;;;;-144.99;79.53;52541.84;5039704;28;20031;-70
2023/03/27 00:26:15;;;;;;;;;;;;;;;-144.99;79.75;52499.06;5048323;28;19928;-70
2023/03/27 00:28:42;;;;;;;;;;;;;;;-144.99;79.61;52509.25;5046556;28;19932;-70
2023/03/27 00:31:11;;;;;;;;;;;;;;;-144.99;79.46;52529.63;5047906;28;20460;-70
2023/03/27 00:33:38;;;;;;;;;;;;;;;-144.99;79.35;52509.25;5048064;28;20020;-70
2023/03/27 00:36:05;;;;;;;;;;;;;;;-144.99;79.38;52513.31;5048694;28;19995;-69
2023/03/27 00:38:32;;;;;;;;;;;;;;;-144.99;79.39;52554.09;5046886;28;19925;-73
2023/03/27 00:40:59;;;;;;;;;;;;;;;-144.99;79.67;52509.25;5048393;28;19940;-72
2023/03/27 00:43:26;;;;;;;;;;;;;;;-144.99;79.19;52497.00;5048257;28;20543;-70
2023/03/27 00:45:55;;;;;;;;;;;;;;;-144.99;79.26;52545.94;5047706;28;19969;-69
2023/03/27 00:48:24;;;;;;;;;;;;;;;-144.99;79.13;52537.78;5045370;28;20013;-71
2023/03/27 00:50:51;;;;;;;;;;;;;;;-144.99;79.17;52521.47;5042328;28;20025;-69
2023/03/27 00:53:20;;;;;;;;;;;;;;;-144.99;79.12;52558.16;5047821;28;20007;-69
2023/03/27 00:55:50;;;;;;;;;;;;;;;-144.99;79.03;52499.06;5048020;28;20058;-69
2023/03/27 00:58:19;;;;;;;;;;;;;;;-144.99;79.11;52552.03;5046452;28;20107;-70
2023/03/27 01:00:46;;;;;;;;;;;;;;;-144.99;79.10;52497.00;5047752;28;19925;-70
2023/03/27 01:03:13;;;;;;;;;;;;;;;-144.99;79.00;52525.56;5047460;28;19998;-69
2023/03/27 01:05:41;;;;;;;;;;;;;;;-144.99;78.92;52505.16;5047671;28;20016;-69
2023/03/27 01:08:08;;;;;;;;;;;;;;;-144.99;78.95;52505.16;5047004;28;20038;-77
2023/03/27 01:10:40;;;;;;;;;;;;;;;-144.99;79.03;52525.56;5047805;28;20012;-73
2023/03/27 01:13:17;;;;;;;;;;;;;;;-144.99;78.95;52488.84;5048246;28;19943;-74
2023/03/27 01:15:47;;;;;;;;;;;;;;;-144.99;78.98;52492.94;5046969;28;20421;-73
2023/03/27 01:18:27;;;;;;;;;;;;;;;-144.99;79.17;52527.59;5042621;28;19928;-73
2023/03/27 01:21:05;;;;;;;;;;;;;;;-144.99;79.21;52513.31;5047295;28;20317;-72
2023/03/27 01:23:47;;;;;;;;;;;;;;;-144.99;79.29;52525.56;5042200;28;19968;-72
2023/03/27 01:26:27;;;;;;;;;;;;;;;-144.99;79.25;52501.09;5047601;28;19995;-67
2023/03/27 01:28:57;;;;;;;;;;;;;;;-144.99;79.55;52576.50;5038699;28;19941;-69
2023/03/27 01:31:33;;;;;;;;;;;;;;;-144.99;79.66;52468.47;5045826;28;20002;-68
2023/03/27 01:34:20;;;;;;;;;;;;;;;-144.99;79.81;52505.16;5047140;28;19944;-69
2023/03/27 01:37:01;;;;;;;;;;;;;;;-144.99;79.65;52531.66;5043980;28;19940;-68
2023/03/27 01:39:39;;;;;;;;;;;;;;;-144.99;79.79;52482.75;5045496;28;19939;-67
2023/03/27 01:42:08;;;;;;;;;;;;;;;-144.99;79.58;52509.25;5044939;28;19948;-68
2023/03/27 01:44:44;;;;;;;;;;;;;;;-144.99;79.89;52492.94;5040441;28;19933;-69
2023/03/27 01:47:16;;;;;;;;;;;;;;;-144.99;79.94;52480.72;5044555;28;19941;-68
2023/03/27 01:49:48;;;;;;;;;;;;;;;-144.99;79.81;52484.78;5043164;28;20290;-68
2023/03/27 01:52:19;;;;;;;;;;;;;;;-144.99;80.57;52501.09;5044288;28;19979;-68
2023/03/27 01:54:54;;;;;;;;;;;;;;;-144.99;80.61;52507.19;5046588;28;20064;-67
2023/03/27 01:57:24;;;;;;;;;;;;;;;-144.99;80.48;52513.31;5042484;28;19932;-67
2023/03/27 01:59:53;;;;;;;;;;;;;;;-144.99;80.92;52484.78;5046499;28;19925;-66
2023/03/27 02:02:23;;;;;;;;;;;;;;;-144.99;81.29;52494.97;5046850;28;20043;-66
2023/03/27 02:04:52;;;;;;;;;;;;;;;-144.99;81.22;52505.16;5045908;28;20078;-66
2023/03/27 02:07:21;;;;;;;;;;;;;;;-144.99;81.37;52517.41;5047016;28;20594;-67
2023/03/27 02:09:51;;;;;;;;;;;;;;;-144.99;81.69;52488.84;5043974;28;19967;-67
2023/03/27 02:12:19;;;;;;;;;;;;;;;-144.99;81.83;52509.25;5039839;28;20366;-67
2023/03/27 02:14:51;;;;;;;;;;;;;;;-144.99;82.24;52501.09;5045239;28;20023;-67
2023/03/27 02:17:19;;;;;;;;;;;;;;;-144.99;82.46;52519.44;5047225;28;19925;-65
2023/03/27 02:19:51;;;;;;;;;;;;;;;-144.99;83.58;52519.44;5045805;28;20453;-65
2023/03/27 02:22:18;;;;;;;;;;;;;;;-144.99;82.42;52525.56;5047445;28;19928;-65
2023/03/27 02:24:45;;;;;;;;;;;;;;;-144.99;82.01;52484.78;5041561;28;20003;-65
2023/03/27 02:27:17;;;;;;;;;;;;;;;-144.99;82.11;52492.94;5040890;28;19979;-66
2023/03/27 02:29:59;;;;;;;;;;;;;;;-144.99;82.13;52541.84;5043885;28;20022;-65
2023/03/27 02:32:31;;;;;;;;;;;;;;;-144.99;81.67;52501.09;5042597;28;20420;-66
2023/03/27 02:35:14;;;;;;;;;;;;;;;-144.99;81.68;52505.16;5043563;28;20424;-64
2023/03/27 02:37:45;;;;;;;;;;;;;;;-144.99;82.04;52515.34;5037144;28;19925;-63
2023/03/27 02:40:17;;;;;;;;;;;;;;;-144.99;81.78;52501.09;5050386;28;19951;-64
2023/03/27 02:42:53;;;;;;;;;;;;;;;-144.99;81.77;52454.22;5047329;28;19932;-63
2023/03/27 02:45:24;;;;;;;;;;;;;;;-144.99;81.88;52541.84;5045724;28;19929;-64
2023/03/27 02:47:53;;;;;;;;;;;;;;;-144.99;82.12;52515.34;5050301;28;19929;-65
2023/03/27 02:50:22;;;;;;;;;;;;;;;-144.99;82.58;52513.31;5048090;28;19933;-63
2023/03/27 02:52:51;;;;;;;;;;;;;;;-144.99;84.26;52497.00;5049680;28;20323;-64
2023/03/27 02:55:20;;;;;;;;;;;;;;;-144.99;84.88;52492.94;5048806;28;19967;-64
2023/03/27 02:57:50;;;;;;;;;;;;;;;-144.99;85.48;52513.31;5046787;28;19955;-64
2023/03/27 03:00:24;;;;;;;;;;;;;;;-144.99;85.28;52513.31;5049840;28;20395;-69
2023/03/27 03:02:54;;;;;;;;;;;;;;;-144.99;85.72;52523.50;5049967;28;19994;-72
2023/03/27 03:05:21;;;;;;;;;;;;;;;-144.99;85.96;52525.56;5044518;28;20405;-70
2023/03/27 03:07:47;;;;;;;;;;;;;;;-144.99;85.16;52513.31;5049509;28;20023;-70
2023/03/27 03:10:14;;;;;;;;;;;;;;;-144.99;83.41;52517.41;5047148;28;19964;-69
2023/03/27 03:12:41;;;;;;;;;;;;;;;-144.99;83.38;52486.81;5049924;28;20024;-69
2023/03/27 03:15:10;;;;;;;;;;;;;;;-144.99;84.25;52499.06;5049734;28;20101;-70
2023/03/27 03:17:37;;;;;;;;;;;;;;;-144.99;85.00;52509.25;5046818;28;19925;-69
2023/03/27 03:20:04;;;;;;;;;;;;;;;-144.99;84.96;52484.78;5049580;28;20066;-68
2023/03/27 03:22:32;;;;;;;;;;;;;;;-144.99;85.29;52525.56;5049594;28;19932;-70
2023/03/27 03:24:59;;;;;;;;;;;;;;;-144.99;85.61;52505.16;5049728;28;20002;-69
2023/03/27 03:27:28;;;;;;;;;;;;;;;-144.99;86.88;52480.72;5049770;28;19940;-69
2023/03/27 03:29:55;;;;;;;;;;;;;;;-144.99;88.13;52517.41;5048005;28;19964;-68
2023/03/27 03:32:23;;;;;;;;;;;;;;;-144.99;87.74;52501.09;5049754;28;20039;-67
2023/03/27 03:34:49;;;;;;;;;;;;;;;-144.99;87.37;52480.72;5049361;28;19929;-68
2023/03/27 03:37:16;;;;;;;;;;;;;;;-144.99;87.47;52488.84;5049458;28;19983;-68
2023/03/27 03:39:42;;;;;;;;;;;;;;;-144.99;87.51;52501.09;5047381;28;19925;-68
2023/03/27 03:42:09;;;;;;;;;;;;;;;-144.99;87.67;52492.94;5049083;28;19933;-68
2023/03/27 03:44:36;;;;;;;;;;;;;;;-144.99;87.85;52476.63;5041318;28;20357;-68
2023/03/27 03:47:03;;;;;;;;;;;;;;;-144.99;87.96;52497.00;5045516;28;19924;-68
2023/03/27 03:49:31;;;;;;;;;;;;;;;-144.99;88.39;52515.34;5046357;28;20451;-67
2023/03/27 03:51:58;;;;;;;;;;;;;;;-144.99;88.12;52492.94;5046307;28;19940;-67
2023/03/27 03:54:24;;;;;;;;;;;;;;;-144.99;85.97;52472.56;5048633;28;19932;-69
2023/03/27 03:56:51;;;;;;;;;;;;;;;-144.99;86.96;52501.09;5048679;28;20055;-68
2023/03/27 03:59:17;;;;;;;;;;;;;;;-144.99;87.73;52525.56;5046942;28;19928;-65
2023/03/27 04:01:44;;;;;;;;;;;;;;;-144.99;87.68;52464.41;5048458;28;19998;-65
2023/03/27 04:04:11;;;;;;;;;;;;;;;-144.99;87.98;52513.31;5048644;28;19967;-65
2023/03/27 04:06:39;;;;;;;;;;;;;;;-144.99;88.39;52497.00;5048287;28;19967;-66
2023/03/27 04:09:06;;;;;;;;;;;;;;;-144.99;88.89;52484.78;5045140;28;19932;-73
2023/03/27 04:11:33;;;;;;;;;;;;;;;-144.99;89.37;52509.25;5047198;28;20176;-68
2023/03/27 04:14:00;;;;;;;;;;;;;;;-144.99;89.85;52501.09;5049192;28;19928;-73
2023/03/27 04:16:26;;;;;;;;;;;;;;;-144.99;90.88;52492.94;5048570;28;20032;-71
2023/03/27 04:18:54;;;;;;;;;;;;;;;-144.99;91.47;52468.47;5048340;28;19968;-73
2023/03/27 04:21:20;;;;;;;;;;;;;;;-144.99;92.80;52478.66;5046819;28;20346;-71
2023/03/27 04:23:50;;;;;;;;;;;;;;;-144.99;93.71;52490.91;5047997;28;19931;-71
2023/03/27 04:26:16;;;;;;;;;;;;;;;-144.99;93.71;52501.09;5048833;28;19932;-67
2023/03/27 04:28:43;;;;;;;;;;;;;;;-144.99;94.39;52472.56;5047463;28;20409;-67
2023/03/27 04:31:10;;;;;;;;;;;;;;;-144.99;94.85;52527.59;5048388;28;20109;-67
2023/03/27 04:33:38;;;;;;;;;;;;;;;-144.99;95.57;52505.16;5048303;28;19931;-67
2023/03/27 04:36:05;;;;;;;;;;;;;;;-144.99;96.51;52468.47;5048185;28;19932;-67
2023/03/27 04:38:32;;;;;;;;;;;;;;;-144.99;96.86;52472.56;5046172;28;20424;-66
2023/03/27 04:41:00;;;;;;;;;;;;;;;-144.99;97.08;52486.81;5048357;28;20311;-66
2023/03/27 04:43:27;;;;;;;;;;;;;;;-144.99;97.68;52497.00;5045737;28;19964;-66
2023/03/27 04:45:53;;;;;;;;;;;;;;;-144.99;97.27;52501.09;5047492;28;19964;-67
2023/03/27 04:48:20;;;;;;;;;;;;;;;-144.99;97.27;52519.44;5047332;28;20023;-67
2023/03/27 04:50:48;;;;;;;;;;;;;;;-144.99;97.12;52521.47;5046663;28;20010;-66
2023/03/27 04:53:15;;;;;;;;;;;;;;;-144.99;97.60;52470.50;5047381;28;19932;-67
2023/03/27 04:55:42;;;;;;;;;;;;;;;-144.99;97.95;52525.56;5044519;28;19925;-65
2023/03/27 04:58:11;;;;;;;;;;;;;;;-144.99;96.73;52484.78;5047700;28;19925;-65
2023/03/27 05:00:38;;;;;;;;;;;;;;;-144.99;97.12;52492.94;5045634;28;20336;-66
2023/03/27 05:03:04;;;;;;;;;;;;;;;-144.99;97.90;52492.94;5047715;28;21298;-66
2023/03/27 05:05:31;;;;;;;;;;;;;;;-144.99;97.87;52444.03;5047346;28;20416;-66
2023/03/27 05:07:58;;;;;;;;;;;;;;;-144.99;99.71;52462.34;5046972;28;19994;-66
2023/03/27 05:10:24;;;;;;;;;;;;;;;-144.99;99.31;52492.94;5043671;28;20396;-68
2023/03/27 05:12:52;;;;;;;;;;;;;;;-144.99;98.16;52468.47;5047887;28;19978;-69
2023/03/27 05:15:20;;;;;;;;;;;;;;;-144.99;97.58;52460.31;5043934;28;19959;-71
2023/03/27 05:17:51;;;;;;;;;;;;;;;-144.99;97.26;52511.28;5047437;28;19925;-67
2023/03/27 05:20:19;;;;;;;;;;;;;;;-144.99;97.09;52488.84;5045877;28;19932;-67
2023/03/27 05:22:46;;;;;;;;;;;;;;;-144.99;96.85;52490.91;5047487;28;20024;-68
2023/03/27 05:25:13;;;;;;;;;;;;;;;-144.99;96.84;52474.59;4345651;28;10000842;-68
2023/03/27 05:27:44;;;;;;;;;;;;;;;-144.99;96.47;52456.25;5042289;28;19925;-68
2023/03/27 05:30:11;;;;;;;;;;;;;;;-144.99;96.54;52480.72;5037563;28;19935;-69
2023/03/27 05:32:39;;;;;;;;;;;;;;;-144.99;96.38;52476.63;5040941;28;20341;-68
2023/03/27 05:35:06;;;;;;;;;;;;;;;-144.99;96.28;52476.63;5043450;28;19972;-68
2023/03/27 05:37:32;;;;;;;;;;;;;;;-144.99;96.04;52488.84;5043476;28;20054;-68
2023/03/27 05:39:59;;;;;;;;;;;;;;;-144.99;95.93;52444.03;5042127;28;19997;-68
2023/03/27 05:42:25;;;;;;;;;;;;;;;-144.99;95.68;52531.66;5038311;28;19960;-68
2023/03/27 05:44:52;;;;;;;;;;;;;;;-144.99;96.02;52480.72;5042809;28;19994;-69
2023/03/27 05:47:19;;;;;;;;;;;;;;;-144.99;96.30;52488.84;5044221;28;19964;-68
2023/03/27 05:49:47;;;;;;;;;;;;;;;-144.99;96.43;52460.31;5042714;28;20344;-69
2023/03/27 05:52:14;;;;;;;;;;;;;;;-144.99;97.45;52446.06;5036954;28;20385;-69
2023/03/27 05:54:41;;;;;;;;;;;;;;;-144.99;97.33;52472.56;5043397;28;19932;-67
2023/03/27 05:57:07;;;;;;;;;;;;;;;-144.99;98.13;52480.72;5044798;28;20011;-68
2023/03/27 05:59:34;;;;;;;;;;;;;;;-144.99;98.16;52435.88;5043148;28;20115;-69
2023/03/27 06:02:01;;;;;;;;;;;;;;;-144.99;98.16;52427.72;5043034;28;19943;-69
2023/03/27 06:04:29;;;;;;;;;;;;;;;-144.99;99.10;52499.06;5044085;28;20365;-68
2023/03/27 06:06:57;;;;;;;;;;;;;;;-144.99;100.00;52456.25;5042207;28;19933;-69
2023/03/27 06:09:24;;;;;;;;;;;;;;;-144.99;100.00;52452.16;5042376;28;19975;-69
2023/03/27 06:11:51;;;;;;;;;;;;;;;-144.99;99.57;52468.47;5046126;28;19928;-69
2023/03/27 06:14:17;;;;;;;;;;;;;;;-144.99;99.62;52478.66;5048228;28;20397;-70
2023/03/27 06:16:45;;;;;;;;;;;;;;;-144.99;99.20;52454.22;5047605;28;19964;-69
2023/03/27 06:19:11;;;;;;;;;;;;;;;-144.99;98.82;52460.31;5047323;28;20079;-68
2023/03/27 06:21:38;;;;;;;;;;;;;;;-144.99;98.47;52464.41;5047961;28;20358;-70
2023/03/27 06:24:06;;;;;;;;;;;;;;;-144.99;97.47;52460.31;5048523;28;19936;-68
2023/03/27 06:26:33;;;;;;;;;;;;;;;-144.99;96.06;52427.72;5044758;28;19975;-69
2023/03/27 06:29:00;;;;;;;;;;;;;;;-144.99;94.66;52488.84;5046063;28;20007;-69
2023/03/27 06:31:26;;;;;;;;;;;;;;;-144.99;93.20;52476.63;5048141;28;20014;-69
2023/03/27 06:33:53;;;;;;;;;;;;;;;-144.99;92.16;52437.91;5047169;28;20345;-71
2023/03/27 06:36:19;;;;;;;;;;;;;;;-144.99;91.47;52448.09;5047576;28;19970;-70
2023/03/27 06:38:46;;;;;;;;;;;;;;;-144.99;90.49;52464.41;5043828;28;20233;-71
2023/03/27 06:41:14;;;;;;;;;;;;;;;-144.99;90.27;52480.72;5045920;28;19955;-70
2023/03/27 06:43:40;;;;;;;;;;;;;;;-144.99;89.80;52490.91;5046122;28;19972;-70
2023/03/27 06:46:07;;;;;;;;;;;;;;;-144.99;89.60;52452.16;5039416;28;19936;-69
2023/03/27 06:48:33;;;;;;;;;;;;;;;-144.99;89.16;52460.31;5044181;28;20328;-70
2023/03/27 06:51:00;;;;;;;;;;;;;;;-144.99;89.38;52480.72;5047148;28;19935;-69
2023/03/27 06:53:28;;;;;;;;;;;;;;;-144.99;91.13;52452.16;5047775;28;19991;-69
2023/03/27 06:55:55;;;;;;;;;;;;;;;-144.99;90.86;52476.63;5048840;28;20343;-69
2023/03/27 06:58:23;;;;;;;;;;;;;;;-144.99;89.14;52452.16;5048641;28;19925;-70
2023/03/27 07:00:49;;;;;;;;;;;;;;;-144.99;89.30;52460.31;5049536;28;19963;-71
2023/03/27 07:03:17;;;;;;;;;;;;;;;-144.99;89.34;52460.31;4700939;28;9999916;-70
2023/03/27 07:05:43;;;;;;;;;;;;;;;-144.99;89.92;52448.09;5046298;28;20370;-70
2023/03/27 07:08:11;;;;;;;;;;;;;;;-144.99;87.28;52472.56;5046965;28;19932;-70
2023/03/27 07:10:38;;;;;;;;;;;;;;;-144.99;85.50;52437.91;5045787;28;19928;-70
2023/03/27 07:13:05;;;;;;;;;;;;;;;-144.99;84.31;52439.94;5047636;28;19960;-71
2023/03/27 07:15:33;;;;;;;;;;;;;;;-144.99;83.25;52431.78;5046971;28;19932;-70
2023/03/27 07:18:01;;;;;;;;;;;;;;;-144.99;82.26;52446.06;5046736;28;19929;-70
2023/03/27 07:20:29;;;;;;;;;;;;;;;-144.99;82.16;52431.78;5055807;23;20244;-66
2023/03/27 07:22:56;;;;;;;;;;;;;;;-144.99;81.51;52425.66;5042536;28;19929;-67
2023/03/27 07:25:23;;;;;;;;;;;;;;;-144.99;81.45;52439.94;5039498;28;19929;-66
2023/03/27 07:27:49;;;;;;;;;;;;;;;-144.99;81.08;52435.88;5025098;28;19925;-66
2023/03/27 07:30:16;;;;;;;;;;;;;;;-144.99;80.75;52431.78;5020320;28;19936;-66
2023/03/27 07:32:45;;;;;;;;;;;;;;;-144.99;80.83;52464.41;5027427;28;20337;-67
2023/03/27 07:35:12;;;;;;;;;;;;;;;-144.99;79.39;52423.63;5021085;28;19979;-66
2023/03/27 07:37:39;;;;;;;;;;;;;;;-144.99;78.57;52452.16;5026776;28;19944;-66
2023/03/27 07:40:07;;;;;;;;;;;;;;;-144.99;78.37;52458.28;5026343;28;19937;-65
2023/03/27 07:42:34;;;;;;;;;;;;;;;-144.99;78.50;52470.50;5027707;28;19975;-66
2023/03/27 07:45:01;;;;;;;;;;;;;;;-144.99;78.48;52403.25;5026082;28;19929;-66
2023/03/27 07:47:28;;;;;;;;;;;;;;;-144.99;77.63;52415.47;5024829;28;19933;-65
2023/03/27 07:49:55;;;;;;;;;;;;;;;-144.99;76.85;52403.25;5026176;28;20019;-66
2023/03/27 07:52:22;;;;;;;;;;;;;;;-144.99;75.56;52380.84;5030271;28;19929;-65
2023/03/27 07:54:50;;;;;;;;;;;;;;;-144.99;75.23;52417.53;5019089;28;19926;-66
2023/03/27 07:57:16;;;;;;;;;;;;;;;-144.99;74.87;52403.25;5026669;28;20421;-66
2023/03/27 07:59:44;;;;;;;;;;;;;;;-144.99;74.09;52391.03;5025668;28;19982;-65
2023/03/27 08:02:10;;;;;;;;;;;;;;;-144.99;73.93;52401.22;5024252;28;19933;-67
2023/03/27 08:04:37;;;;;;;;;;;;;;;-144.99;74.23;52378.78;5026895;28;19975;-66
2023/03/27 08:07:05;;;;;;;;;;;;;;;-144.99;74.13;52407.31;5024947;28;19929;-66
2023/03/27 08:09:31;;;;;;;;;;;;;;;-144.99;74.13;52399.19;5019467;28;19929;-66
2023/03/27 08:11:58;;;;;;;;;;;;;;;-144.99;74.39;52407.31;5025251;28;20018;-65
2023/03/27 08:14:25;;;;;;;;;;;;;;;-144.99;75.33;52417.53;5027102;28;19933;-65
2023/03/27 08:16:52;;;;;;;;;;;;;;;-144.99;74.88;52427.72;5025637;28;19964;-66
2023/03/27 08:19:20;;;;;;;;;;;;;;;-144.99;74.53;52427.72;5025998;28;19925;-66
2023/03/27 08:21:46;;;;;;;;;;;;;;;-144.99;74.87;52419.56;5025430;28;19983;-66
2023/03/27 08:24:14;;;;;;;;;;;;;;;-144.99;75.31;52415.47;5013494;28;19961;-66
2023/03/27 08:26:41;;;;;;;;;;;;;;;-144.99;74.67;52427.72;5026804;28;19956;-66
2023/03/27 08:29:08;;;;;;;;;;;;;;;-144.99;74.30;52395.09;5026238;28;19929;-66
2023/03/27 08:31:34;;;;;;;;;;;;;;;-144.99;73.82;52403.25;5026442;28;20013;-66
2023/03/27 08:34:01;;;;;;;;;;;;;;;-144.99;73.49;52417.53;5024412;28;19937;-66
2023/03/27 08:36:28;;;;;;;;;;;;;;;-144.99;73.48;52452.16;5021342;28;20176;-66
2023/03/27 08:38:54;;;;;;;;;;;;;;;-144.99;73.81;52464.41;5024574;28;19976;-67
2023/03/27 08:41:37;;;;;;;;;;;;;;;-144.99;73.05;52435.88;5027089;28;20402;-67
2023/03/27 08:44:05;;;;;;;;;;;;;;;-144.99;73.38;52403.25;5020233;28;20029;-66
2023/03/27 08:46:34;;;;;;;;;;;;;;;-144.99;73.91;52399.19;5019129;28;20405;-66
2023/03/27 08:49:05;;;;;;;;;;;;;;;-144.99;73.25;52407.31;5025874;28;19925;-67
2023/03/27 08:51:34;;;;;;;;;;;;;;;-144.99;73.77;52395.09;5029408;28;20305;-67
2023/03/27 08:54:06;;;;;;;;;;;;;;;-144.99;74.67;52403.25;5020197;28;19940;-67
2023/03/27 08:56:34;;;;;;;;;;;;;;;-144.99;74.33;52423.63;5025811;28;19971;-67
2023/03/27 08:59:01;;;;;;;;;;;;;;;-144.99;73.84;52423.63;5025684;28;20412;-67
2023/03/27 09:01:32;;;;;;;;;;;;;;;-144.99;73.71;52433.81;5026089;28;19979;-67
2023/03/27 09:04:03;;;;;;;;;;;;;;;-144.99;73.59;52423.63;5016490;28;19933;-65
2023/03/27 09:06:37;;;;;;;;;;;;;;;-144.99;73.70;52382.88;5025618;28;19933;-67
2023/03/27 09:09:07;;;;;;;;;;;;;;;-144.99;74.41;52444.03;5018030;28;19925;-66
2023/03/27 09:11:45;;;;;;;;;;;;;;;-144.99;74.23;52419.56;5026240;28;20328;-66
2023/03/27 09:14:18;;;;;;;;;;;;;;;-144.99;73.54;52444.03;5018721;28;20286;-66
2023/03/27 09:16:47;;;;;;;;;;;;;;;-144.99;73.65;52431.78;5022262;28;19929;-66
2023/03/27 09:19:18;;;;;;;;;;;;;;;-144.99;73.69;52403.25;5020297;28;20222;-67
2023/03/27 09:21:48;;;;;;;;;;;;;;;-144.99;74.58;52403.25;5018094;28;19991;-66
2023/03/27 09:24:20;;;;;;;;;;;;;;;-144.99;73.27;52391.03;5020993;28;19933;-66
2023/03/27 09:26:50;;;;;;;;;;;;;;;-144.99;72.51;52344.16;5025621;28;20400;-67
2023/03/27 09:29:19;;;;;;;;;;;;;;;-144.99;70.89;52419.56;5025668;28;19929;-67
2023/03/27 09:31:46;;;;;;;;;;;;;;;-144.99;70.58;52374.72;5025078;28;19929;-67
2023/03/27 09:34:14;;;;;;;;;;;;;;;-144.99;70.53;52391.03;5017300;28;19964;-65
2023/03/27 09:36:41;;;;;;;;;;;;;;;-144.99;70.54;52407.31;5023871;28;19998;-66
2023/03/27 09:39:08;;;;;;;;;;;;;;;-144.99;69.84;52358.41;5021965;28;19929;-67
2023/03/27 09:41:38;;;;;;;;;;;;;;;-144.99;69.23;52382.88;5024375;28;20009;-66
2023/03/27 09:44:10;;;;;;;;;;;;;;;-144.99;68.71;52362.50;5027242;28;20013;-66
2023/03/27 09:46:40;;;;;;;;;;;;;;;-144.99;69.05;52352.28;5021727;28;19925;-66
2023/03/27 09:49:12;;;;;;;;;;;;;;;-144.99;67.77;52350.25;5025397;28;20008;-67
2023/03/27 09:51:41;;;;;;;;;;;;;;;-144.99;67.21;52346.19;5033032;28;19940;-67
2023/03/27 09:54:08;;;;;;;;;;;;;;;-144.99;66.84;52380.84;5027575;28;19956;-67
2023/03/27 09:56:36;;;;;;;;;;;;;;;-144.99;66.36;52325.81;5023454;28;19929;-67
2023/03/27 09:59:10;;;;;;;;;;;;;;;-144.99;66.41;52362.50;5029218;28;19926;-66
2023/03/27 10:01:37;;;;;;;;;;;;;;;-144.99;64.08;52352.28;5026061;28;20197;-67
2023/03/27 10:04:12;;;;;;;;;;;;;;;-144.99;63.71;52325.81;5029638;28;20020;-67
2023/03/27 10:06:43;;;;;;;;;;;;;;;-144.99;64.26;52268.72;5027204;28;20593;-68
2023/03/27 10:09:13;;;;;;;;;;;;;;;-144.99;64.26;52376.75;5022710;28;19933;-67
2023/03/27 10:11:40;;;;;;;;;;;;;;;-144.99;65.11;52382.88;5029499;28;19944;-67
2023/03/27 10:14:13;;;;;;;;;;;;;;;-144.99;66.36;52411.41;5027953;28;19925;-66
2023/03/27 10:16:41;;;;;;;;;;;;;;;-144.99;68.02;52419.56;5026760;28;19975;-67
2023/03/27 10:19:19;;;;;;;;;;;;;;;-144.99;69.58;52427.72;5027256;28;21259;-67
2023/03/27 10:21:46;;;;;;;;;;;;;;;-144.99;75.15;52431.78;5027778;28;19929;-67
2023/03/27 10:24:19;;;;;;;;;;;;;;;-144.99;76.92;52431.78;5024239;28;19952;-67
2023/03/27 10:26:47;;;;;;;;;;;;;;;-144.99;78.89;52435.88;5028601;28;19971;-68
2023/03/27 10:29:26;;;;;;;;;;;;;;;-144.99;80.92;52431.78;5028584;28;19964;-66
2023/03/27 10:31:55;;;;;;;;;;;;;;;-144.99;82.33;52444.03;5025467;28;19944;-66
2023/03/27 10:34:32;;;;;;;;;;;;;;;-144.99;82.71;52468.47;5025862;28;19929;-67
2023/03/27 10:37:00;;;;;;;;;;;;;;;-144.99;83.24;52346.19;5028480;28;20097;-67
2023/03/27 10:39:28;;;;;;;;;;;;;;;-144.99;80.07;52329.88;5027505;28;19933;-67
2023/03/27 10:41:55;;;;;;;;;;;;;;;-144.99;76.61;52297.25;5025408;28;20034;-67
2023/03/27 10:44:24;;;;;;;;;;;;;;;-144.99;73.05;52232.03;5023217;28;20324;-67
2023/03/27 10:46:53;;;;;;;;;;;;;;;-144.99;69.28;52215.75;5021762;28;20313;-67
2023/03/27 10:49:27;;;;;;;;;;;;;;;-144.99;67.53;52164.78;5028840;28;19968;-67
2023/03/27 10:51:57;;;;;;;;;;;;;;;-144.99;66.73;52132.19;5028699;28;19929;-67
2023/03/27 10:54:32;;;;;;;;;;;;;;;-144.99;65.34;52113.84;5026489;28;19936;-67
2023/03/27 10:57:02;;;;;;;;;;;;;;;-144.99;64.64;52164.78;5028007;28;19931;-67
2023/03/27 10:59:30;;;;;;;;;;;;;;;-144.99;63.69;52089.38;5028921;28;20307;-67
2023/03/27 11:02:01;;;;;;;;;;;;;;;-144.99;62.75;52089.38;5029066;28;19936;-68
2023/03/27 11:04:33;;;;;;;;;;;;;;;-144.99;60.67;52085.31;5027280;28;19925;-67
2023/03/27 11:07:02;;;;;;;;;;;;;;;-144.99;59.69;52130.13;5027431;28;19940;-69
2023/03/27 11:09:31;;;;;;;;;;;;;;;-144.99;60.33;52134.22;5028500;28;19933;-68
2023/03/27 11:11:59;;;;;;;;;;;;;;;-144.99;60.00;52170.91;5027648;28;20114;-68
2023/03/27 11:14:29;;;;;;;;;;;;;;;-144.99;59.05;52209.63;5027873;28;19937;-68
2023/03/27 11:16:58;;;;;;;;;;;;;;;-144.99;60.24;52305.41;5027120;28;19975;-67
2023/03/27 11:19:36;;;;;;;;;;;;;;;-144.99;61.13;52391.03;5027570;28;19991;-68
2023/03/27 11:22:04;;;;;;;;;;;;;;;-144.99;63.87;52407.31;5026848;28;19932;-68
2023/03/27 11:24:34;;;;;;;;;;;;;;;-144.99;71.90;52444.03;5026950;28;20020;-70
2023/03/27 11:27:05;;;;;;;;;;;;;;;-144.99;75.42;52472.56;5029131;28;20054;-66
2023/03/27 11:29:35;;;;;;;;;;;;;;;-144.99;81.12;52537.78;5031314;28;19933;-67
2023/03/27 11:32:05;;;;;;;;;;;;;;;-144.99;85.77;52554.09;5029292;28;20393;-68
2023/03/27 11:34:36;;;;;;;;;;;;;;;-144.99;87.58;52509.25;5024013;28;20393;-67
2023/03/27 11:37:05;;;;;;;;;;;;;;;-144.99;89.48;52550.00;5027692;28;19951;-69
2023/03/27 11:39:35;;;;;;;;;;;;;;;-144.99;92.04;52545.94;5026403;28;19929;-67
2023/03/27 11:42:05;;;;;;;;;;;;;;;-144.99;91.30;52541.84;5028252;28;19929;-67
2023/03/27 11:44:32;;;;;;;;;;;;;;;-144.99;89.69;52492.94;5025844;28;19955;-68
2023/03/27 11:47:09;;;;;;;;;;;;;;;-144.99;87.32;52391.03;5021212;28;19971;-68
2023/03/27 11:49:49;;;;;;;;;;;;;;;-144.99;81.59;52362.50;5028703;28;20044;-68
2023/03/27 11:52:22;;;;;;;;;;;;;;;-144.99;77.87;52289.13;5028822;28;19967;-69
2023/03/27 11:54:59;;;;;;;;;;;;;;;-144.99;73.21;52276.88;5028201;28;19936;-68
2023/03/27 11:57:26;;;;;;;;;;;;;;;-144.99;69.50;52232.03;5029101;28;19929;-67
2023/03/27 12:00:04;;;;;;;;;;;;;;;-144.99;68.87;52244.28;5025435;28;19979;-67
2023/03/27 12:02:39;;;;;;;;;;;;;;;-144.99;67.54;52217.78;5015593;28;20000;-68
2023/03/27 12:05:13;;;;;;;;;;;;;;;-144.99;66.10;52244.28;5024276;28;19987;-68
2023/03/27 12:07:48;;;;;;;;;;;;;;;-144.99;67.74;52264.66;5027284;28;19948;-67
2023/03/27 12:10:27;;;;;;;;;;;;;;;-144.99;66.76;52207.59;5024328;28;20015;-69
2023/03/27 12:13:05;;;;;;;;;;;;;;;-144.99;65.34;52338.03;5018663;28;20442;-66
2023/03/27 12:15:42;;;;;;;;;;;;;;;-144.99;67.72;52346.19;5020146;28;20013;-67
2023/03/27 12:18:17;;;;;;;;;;;;;;;-144.99;67.91;52338.03;5026225;28;20260;-68
2023/03/27 12:20:57;;;;;;;;;;;;;;;-144.99;66.49;52189.25;5027174;28;19929;-68
2023/03/27 12:23:41;;;;;;;;;;;;;;;-144.99;65.38;52380.84;5020792;28;19936;-68
2023/03/27 12:26:18;;;;;;;;;;;;;;;-144.99;66.73;52207.59;5027028;28;20019;-67
2023/03/27 12:28:57;;;;;;;;;;;;;;;-144.99;66.39;52264.66;5026622;28;19976;-67
2023/03/27 12:31:29;;;;;;;;;;;;;;;-144.99;64.17;52315.59;5027086;28;19929;-68
2023/03/27 12:34:00;;;;;;;;;;;;;;;-144.99;63.82;52242.22;5020534;28;20183;-67
2023/03/27 12:36:31;;;;;;;;;;;;;;;-144.99;63.89;52305.41;5021122;28;20015;-68